Time;durP1;ratioP1;P1;durP2;ratioP2;P2;SDS_P1;SDS_P2;PMS_P1;PMS_P2;Temp;Humidity;BMP_temperature;BMP_pressure;BME280_temperature;BME280_humidity;BME280_pressure;Samples;Min_cycle;Max_cycle;Signal;HPM_P1;HPM_P2
2022/07/31 00:00:25;;;;;;;6.72;3.03;;;;;;;;;;5114711;27;20520;-64
2022/07/31 00:02:51;;;;;;;9.18;3.05;;;;;;;;;;5095791;27;20043;-64
2022/07/31 00:05:18;;;;;;;8.02;2.92;;;;;;;;;;5112591;27;20083;-64
2022/07/31 00:07:44;;;;;;;7.53;3.15;;;;;;;;;;5113317;27;20678;-64
2022/07/31 00:10:10;;;;;;;9.07;2.95;;;;;;;;;;5095252;27;20119;-64
2022/07/31 00:12:36;;;;;;;8.27;3.22;;;;;;;;;;5111213;27;20035;-64
2022/07/31 00:15:04;;;;;;;12.07;3.42;;;;;;;;;;5111941;27;20054;-64
2022/07/31 00:17:30;;;;;;;10.38;3.28;;;;;;;;;;5113921;27;20221;-64
2022/07/31 00:19:56;;;;;;;10.02;3.05;;;;;;;;;;5105378;27;20100;-64
2022/07/31 00:22:22;;;;;;;9.43;3.10;;;;;;;;;;5098260;27;20051;-64
2022/07/31 00:24:49;;;;;;;8.98;3.50;;;;;;;;;;5115140;27;20047;-64
2022/07/31 00:27:15;;;;;;;7.07;3.53;;;;;;;;;;5114817;27;20450;-64
2022/07/31 00:29:41;;;;;;;7.43;3.22;;;;;;;;;;5114218;27;20039;-64
2022/07/31 00:32:07;;;;;;;6.82;3.10;;;;;;;;;;5111317;27;20080;-64
2022/07/31 00:34:33;;;;;;;9.82;3.65;;;;;;;;;;5115445;27;20046;-65
2022/07/31 00:36:59;;;;;;;5.90;3.25;;;;;;;;;;5101504;27;20466;-64
2022/07/31 00:39:26;;;;;;;8.00;3.15;;;;;;;;;;5116115;27;20620;-64
2022/07/31 00:41:53;;;;;;;8.07;3.10;;;;;;;;;;5112966;27;20038;-64
2022/07/31 00:44:20;;;;;;;11.27;3.30;;;;;;;;;;5113088;27;20051;-64
2022/07/31 00:46:46;;;;;;;6.93;4.03;;;;;;;;;;5112996;27;20543;-64
2022/07/31 00:49:12;;;;;;;7.22;3.38;;;;;;;;;;5116909;27;20043;-64
2022/07/31 00:51:39;;;;;;;11.23;3.85;;;;;;;;;;5113799;27;20402;-64
2022/07/31 00:54:07;;;;;;;6.72;3.60;;;;;;;;;;5097447;27;20039;-64
2022/07/31 00:56:33;;;;;;;11.07;3.58;;;;;;;;;;5116591;27;20050;-64
2022/07/31 00:59:00;;;;;;;6.30;3.40;;;;;;;;;;5115861;27;20043;-64
2022/07/31 01:01:26;;;;;;;6.10;3.63;;;;;;;;;;5110404;27;20035;-64
2022/07/31 01:03:53;;;;;;;5.82;3.40;;;;;;;;;;5116977;27;20035;-65
2022/07/31 01:06:19;;;;;;;11.43;3.17;;;;;;;;;;5100016;27;20051;-64
2022/07/31 01:08:45;;;;;;;7.72;3.22;;;;;;;;;;5115170;27;20043;-64
2022/07/31 01:11:15;;;;;;;7.18;3.25;;;;;;;;;;5118679;27;20107;-65
2022/07/31 01:13:49;;;;;;;8.45;3.20;;;;;;;;;;5101274;27;20121;-64
2022/07/31 01:16:17;;;;;;;6.47;3.17;;;;;;;;;;5120366;27;20066;-64
2022/07/31 01:18:43;;;;;;;6.03;3.00;;;;;;;;;;5117181;27;20534;-64
2022/07/31 01:21:16;;;;;;;5.65;3.20;;;;;;;;;;5122105;27;20049;-64
2022/07/31 01:23:50;;;;;;;8.32;3.97;;;;;;;;;;5122148;27;20035;-64
2022/07/31 01:26:26;;;;;;;6.13;3.20;;;;;;;;;;5123745;27;20045;-64
2022/07/31 01:28:57;;;;;;;5.25;2.95;;;;;;;;;;5100305;27;20039;-64
2022/07/31 01:31:27;;;;;;;9.73;3.75;;;;;;;;;;5116275;27;20043;-64
2022/07/31 01:33:59;;;;;;;9.02;3.25;;;;;;;;;;5116718;27;20103;-64
2022/07/31 01:36:26;;;;;;;7.22;3.15;;;;;;;;;;5112583;27;21852;-64
2022/07/31 01:38:55;;;;;;;5.32;3.13;;;;;;;;;;5095600;27;20073;-64
2022/07/31 01:41:24;;;;;;;6.25;2.97;;;;;;;;;;5112077;27;21015;-64
2022/07/31 01:43:52;;;;;;;7.38;3.70;;;;;;;;;;5109552;27;20047;-64
2022/07/31 01:46:19;;;;;;;5.78;3.63;;;;;;;;;;5114010;27;20081;-64
2022/07/31 01:48:46;;;;;;;10.00;4.10;;;;;;;;;;5112222;27;20047;-64
2022/07/31 01:51:13;;;;;;;9.35;4.10;;;;;;;;;;5103213;27;20053;-64
2022/07/31 01:53:40;;;;;;;5.10;3.20;;;;;;;;;;5120971;27;21146;-64
2022/07/31 01:56:07;;;;;;;10.15;3.85;;;;;;;;;;5101701;27;20047;-64
2022/07/31 01:58:34;;;;;;;12.07;3.95;;;;;;;;;;5095871;27;20043;-64
2022/07/31 02:01:02;;;;;;;8.38;3.90;;;;;;;;;;5115296;27;20054;-64
2022/07/31 02:03:28;;;;;;;7.75;3.95;;;;;;;;;;5119155;27;20050;-64
2022/07/31 02:05:56;;;;;;;6.03;3.65;;;;;;;;;;5117308;27;20039;-64
2022/07/31 02:08:22;;;;;;;7.13;4.20;;;;;;;;;;5088633;27;20848;-64
2022/07/31 02:10:48;;;;;;;9.93;4.18;;;;;;;;;;5116951;27;20058;-64
2022/07/31 02:13:16;;;;;;;6.90;3.80;;;;;;;;;;5117995;27;20054;-64
2022/07/31 02:15:43;;;;;;;7.18;3.80;;;;;;;;;;5117415;27;20140;-64
2022/07/31 02:18:10;;;;;;;9.82;4.15;;;;;;;;;;5098982;27;20055;-64
2022/07/31 02:20:37;;;;;;;8.60;4.32;;;;;;;;;;5104398;27;20046;-64
2022/07/31 02:23:03;;;;;;;7.45;4.43;;;;;;;;;;5096369;27;20054;-64
2022/07/31 02:25:31;;;;;;;9.07;4.93;;;;;;;;;;5113232;27;20451;-64
2022/07/31 02:27:58;;;;;;;10.80;4.65;;;;;;;;;;5094883;27;20039;-64
2022/07/31 02:30:26;;;;;;;9.63;4.50;;;;;;;;;;5097690;27;20057;-64
2022/07/31 02:32:53;;;;;;;8.70;4.50;;;;;;;;;;5114579;27;20054;-64
2022/07/31 02:35:19;;;;;;;9.00;4.57;;;;;;;;;;5114515;27;20228;-64
2022/07/31 02:37:46;;;;;;;8.88;4.65;;;;;;;;;;5115879;27;20031;-64
2022/07/31 02:40:13;;;;;;;8.25;4.82;;;;;;;;;;5098203;27;20047;-64
2022/07/31 02:42:40;;;;;;;6.45;4.43;;;;;;;;;;5115417;27;20486;-64
2022/07/31 02:45:08;;;;;;;6.55;4.40;;;;;;;;;;5116641;27;20046;-64
2022/07/31 02:47:35;;;;;;;10.57;4.95;;;;;;;;;;5118728;27;20091;-64
2022/07/31 02:50:02;;;;;;;7.50;4.75;;;;;;;;;;5115795;27;20486;-64
2022/07/31 02:52:28;;;;;;;10.18;5.38;;;;;;;;;;5116542;27;20065;-64
2022/07/31 02:54:55;;;;;;;9.20;5.20;;;;;;;;;;5094301;27;20486;-64
2022/07/31 02:57:22;;;;;;;8.95;5.28;;;;;;;;;;5117943;27;20111;-64
2022/07/31 02:59:48;;;;;;;11.65;5.70;;;;;;;;;;5100820;27;20210;-64
2022/07/31 03:02:14;;;;;;;8.35;5.10;;;;;;;;;;5117634;27;21846;-64
2022/07/31 03:04:40;;;;;;;10.10;5.00;;;;;;;;;;5117116;27;20054;-64
2022/07/31 03:07:07;;;;;;;7.82;5.35;;;;;;;;;;5116187;27;20378;-64
2022/07/31 03:09:33;;;;;;;10.75;5.40;;;;;;;;;;5120314;27;20030;-64
2022/07/31 03:12:00;;;;;;;7.47;5.32;;;;;;;;;;5118611;27;20046;-64
2022/07/31 03:14:26;;;;;;;8.30;5.03;;;;;;;;;;5119727;27;20046;-64
2022/07/31 03:16:53;;;;;;;13.63;6.50;;;;;;;;;;5115268;27;20054;-64
2022/07/31 03:19:20;;;;;;;7.95;5.50;;;;;;;;;;5118781;27;20060;-64
2022/07/31 03:21:47;;;;;;;11.55;5.28;;;;;;;;;;5099346;27;20047;-64
2022/07/31 03:24:13;;;;;;;11.27;5.10;;;;;;;;;;5101130;27;20051;-64
2022/07/31 03:26:39;;;;;;;11.15;5.45;;;;;;;;;;5113570;27;20039;-64
2022/07/31 03:29:06;;;;;;;7.70;5.30;;;;;;;;;;5115338;27;20039;-64
2022/07/31 03:31:32;;;;;;;10.43;4.97;;;;;;;;;;5120681;27;21143;-64
2022/07/31 03:33:58;;;;;;;9.13;5.43;;;;;;;;;;5112951;27;20043;-64
2022/07/31 03:36:25;;;;;;;9.43;5.90;;;;;;;;;;5097293;27;20082;-64
2022/07/31 03:38:51;;;;;;;7.90;5.20;;;;;;;;;;5115096;27;20072;-64
2022/07/31 03:41:17;;;;;;;9.75;5.75;;;;;;;;;;5112079;27;20047;-64
2022/07/31 03:43:43;;;;;;;12.25;5.43;;;;;;;;;;5112635;27;20041;-64
2022/07/31 03:46:10;;;;;;;9.65;5.63;;;;;;;;;;5121360;27;20051;-64
2022/07/31 03:48:37;;;;;;;10.63;5.75;;;;;;;;;;5102871;27;20042;-64
2022/07/31 03:51:03;;;;;;;7.97;5.15;;;;;;;;;;5118151;27;20139;-64
2022/07/31 03:53:30;;;;;;;13.75;5.50;;;;;;;;;;5112137;27;20078;-64
2022/07/31 03:55:57;;;;;;;10.50;5.65;;;;;;;;;;5112882;27;20050;-64
2022/07/31 03:58:23;;;;;;;9.25;5.10;;;;;;;;;;5108333;27;20513;-64
2022/07/31 04:00:49;;;;;;;9.20;5.88;;;;;;;;;;5115645;27;20059;-64
2022/07/31 04:03:15;;;;;;;10.35;5.55;;;;;;;;;;5115943;27;20042;-64
2022/07/31 04:05:42;;;;;;;9.13;5.28;;;;;;;;;;5102133;27;20094;-64
2022/07/31 04:08:09;;;;;;;9.88;5.32;;;;;;;;;;5116911;27;20136;-64
2022/07/31 04:10:35;;;;;;;7.65;5.55;;;;;;;;;;5114620;27;20043;-64
2022/07/31 04:13:03;;;;;;;10.52;5.85;;;;;;;;;;5113784;27;20046;-64
2022/07/31 04:15:29;;;;;;;9.30;5.13;;;;;;;;;;5093319;27;20059;-64
2022/07/31 04:17:55;;;;;;;13.10;6.03;;;;;;;;;;5094814;27;20039;-64
2022/07/31 04:20:21;;;;;;;10.75;5.70;;;;;;;;;;5092461;27;20050;-64
2022/07/31 04:22:48;;;;;;;9.35;5.88;;;;;;;;;;5091017;27;20411;-64
2022/07/31 04:25:14;;;;;;;9.57;5.55;;;;;;;;;;5093967;28;20467;-64
2022/07/31 04:27:40;;;;;;;11.07;5.35;;;;;;;;;;5095690;27;20130;-64
2022/07/31 04:30:07;;;;;;;13.82;5.80;;;;;;;;;;5094057;28;20101;-64
2022/07/31 04:32:33;;;;;;;7.60;5.65;;;;;;;;;;5091819;27;20046;-64
2022/07/31 04:35:00;;;;;;;9.00;6.03;;;;;;;;;;5097814;27;20134;-64
2022/07/31 04:37:26;;;;;;;9.98;5.85;;;;;;;;;;5088985;27;20048;-64
2022/07/31 04:39:52;;;;;;;12.52;6.07;;;;;;;;;;5088594;28;20179;-64
2022/07/31 04:42:19;;;;;;;9.63;5.45;;;;;;;;;;5094811;28;20043;-64
2022/07/31 04:44:45;;;;;;;9.23;5.65;;;;;;;;;;5091580;28;20039;-64
2022/07/31 04:47:11;;;;;;;9.77;5.60;;;;;;;;;;5090183;28;20055;-64
2022/07/31 04:49:37;;;;;;;7.80;6.43;;;;;;;;;;5091916;28;20483;-64
2022/07/31 04:52:04;;;;;;;9.30;5.68;;;;;;;;;;5095106;28;20058;-64
2022/07/31 04:54:30;;;;;;;8.77;5.30;;;;;;;;;;5090096;28;20118;-64
2022/07/31 04:56:56;;;;;;;9.27;5.40;;;;;;;;;;5092829;28;20441;-64
2022/07/31 04:59:23;;;;;;;10.50;6.07;;;;;;;;;;5090500;28;20091;-64
2022/07/31 05:01:49;;;;;;;8.98;5.28;;;;;;;;;;5089641;28;20085;-64
2022/07/31 05:04:16;;;;;;;12.30;5.72;;;;;;;;;;5090529;28;20055;-64
2022/07/31 05:06:43;;;;;;;8.32;6.07;;;;;;;;;;5092935;28;20123;-64
2022/07/31 05:09:12;;;;;;;9.27;5.90;;;;;;;;;;5094734;28;20122;-64
2022/07/31 05:11:39;;;;;;;8.20;5.80;;;;;;;;;;5092039;28;21242;-64
2022/07/31 05:14:06;;;;;;;7.93;5.97;;;;;;;;;;5090326;28;20039;-64
2022/07/31 05:16:33;;;;;;;10.77;5.93;;;;;;;;;;5101245;27;20464;-64
2022/07/31 05:18:59;;;;;;;10.45;6.20;;;;;;;;;;5107731;27;20399;-64
2022/07/31 05:21:26;;;;;;;11.93;6.32;;;;;;;;;;5107135;27;20047;-64
2022/07/31 05:23:53;;;;;;;10.23;5.93;;;;;;;;;;5117469;27;20370;-64
2022/07/31 05:26:38;;;;;;;9.77;5.82;;;;;;;;;;5118141;27;20434;-64
2022/07/31 05:29:06;;;;;;;10.95;5.78;;;;;;;;;;5112592;27;20070;-64
2022/07/31 05:31:32;;;;;;;12.88;6.55;;;;;;;;;;5103365;27;20130;-64
2022/07/31 05:33:58;;;;;;;10.20;5.97;;;;;;;;;;5124976;27;20046;-64
2022/07/31 05:36:26;;;;;;;17.88;6.43;;;;;;;;;;5120663;27;20058;-64
2022/07/31 05:38:52;;;;;;;12.25;6.05;;;;;;;;;;5099513;27;20057;-64
2022/07/31 05:41:18;;;;;;;11.77;6.47;;;;;;;;;;5098491;27;20046;-64
2022/07/31 05:43:44;;;;;;;8.38;6.05;;;;;;;;;;5120546;27;20568;-64
2022/07/31 05:46:13;;;;;;;10.38;6.15;;;;;;;;;;5123058;27;20427;-64
2022/07/31 05:48:40;;;;;;;10.40;6.75;;;;;;;;;;5107580;27;20538;-64
2022/07/31 05:51:09;;;;;;;9.93;6.30;;;;;;;;;;5103346;27;20039;-64
2022/07/31 05:53:36;;;;;;;10.18;6.18;;;;;;;;;;5122405;27;20047;-64
2022/07/31 05:56:03;;;;;;;8.45;6.50;;;;;;;;;;5117819;27;20051;-64
2022/07/31 05:58:29;;;;;;;12.05;6.43;;;;;;;;;;5117161;27;20035;-64
2022/07/31 06:00:55;;;;;;;10.30;6.20;;;;;;;;;;5111652;27;20039;-63
2022/07/31 06:03:23;;;;;;;11.80;6.75;;;;;;;;;;5115529;27;20055;-64
2022/07/31 06:05:49;;;;;;;11.43;6.40;;;;;;;;;;5119941;27;20639;-64
2022/07/31 06:08:16;;;;;;;8.45;6.68;;;;;;;;;;5114651;27;20551;-64
2022/07/31 06:10:42;;;;;;;8.75;6.70;;;;;;;;;;5115366;27;20039;-63
2022/07/31 06:13:08;;;;;;;8.55;5.57;;;;;;;;;;5121865;27;20087;-63
2022/07/31 06:15:35;;;;;;;9.07;6.53;;;;;;;;;;5114978;27;20043;-64
2022/07/31 06:18:01;;;;;;;19.52;7.38;;;;;;;;;;5096749;27;20047;-64
2022/07/31 06:20:27;;;;;;;8.15;6.68;;;;;;;;;;5118478;27;20098;-64
2022/07/31 06:22:53;;;;;;;9.23;6.90;;;;;;;;;;5114612;27;21056;-64
2022/07/31 06:25:20;;;;;;;9.98;7.20;;;;;;;;;;5099259;27;20129;-64
2022/07/31 06:27:46;;;;;;;18.35;7.85;;;;;;;;;;5095811;27;20040;-64
2022/07/31 06:30:12;;;;;;;11.13;7.60;;;;;;;;;;5120842;27;20042;-64
2022/07/31 06:32:39;;;;;;;10.68;7.43;;;;;;;;;;5118672;27;20043;-65
2022/07/31 06:35:06;;;;;;;10.63;7.55;;;;;;;;;;5113969;27;20047;-64
2022/07/31 06:37:32;;;;;;;16.60;8.13;;;;;;;;;;5111493;27;21902;-65
2022/07/31 06:39:58;;;;;;;10.07;7.43;;;;;;;;;;5111119;27;20064;-64
2022/07/31 06:42:25;;;;;;;11.70;8.25;;;;;;;;;;5111032;27;20044;-64
2022/07/31 06:44:52;;;;;;;10.23;8.23;;;;;;;;;;5116713;27;20043;-64
2022/07/31 06:47:19;;;;;;;15.73;8.57;;;;;;;;;;5114715;27;20909;-64
2022/07/31 06:49:45;;;;;;;13.07;8.23;;;;;;;;;;5115873;27;20039;-64
2022/07/31 06:52:11;;;;;;;11.52;8.45;;;;;;;;;;5116941;27;20103;-64
2022/07/31 06:54:37;;;;;;;15.82;8.85;;;;;;;;;;5093058;27;20188;-65
2022/07/31 06:57:04;;;;;;;11.07;8.32;;;;;;;;;;5116634;27;20461;-65
2022/07/31 06:59:30;;;;;;;9.80;8.20;;;;;;;;;;5132307;27;20105;-65
2022/07/31 07:01:56;;;;;;;13.50;8.73;;;;;;;;;;5132199;27;20069;-65
2022/07/31 07:04:22;;;;;;;10.45;8.85;;;;;;;;;;5114168;27;20054;-65
2022/07/31 07:06:48;;;;;;;11.95;8.60;;;;;;;;;;5133076;27;20047;-64
2022/07/31 07:09:15;;;;;;;11.38;8.98;;;;;;;;;;5121134;27;20151;-65
2022/07/31 07:11:41;;;;;;;14.48;9.18;;;;;;;;;;5130153;27;20066;-65
2022/07/31 07:14:07;;;;;;;17.85;10.57;;;;;;;;;;5128222;27;20074;-64
2022/07/31 07:16:33;;;;;;;11.05;9.32;;;;;;;;;;5096621;27;20956;-65
2022/07/31 07:18:59;;;;;;;16.55;10.20;;;;;;;;;;5092692;28;20185;-65
2022/07/31 07:21:25;;;;;;;13.68;9.73;;;;;;;;;;5082805;28;20044;-64
2022/07/31 07:23:52;;;;;;;16.70;11.07;;;;;;;;;;5080675;28;20066;-64
2022/07/31 07:26:18;;;;;;;14.43;11.23;;;;;;;;;;5080691;28;20048;-64
2022/07/31 07:28:44;;;;;;;13.63;11.63;;;;;;;;;;5079694;28;20040;-65
2022/07/31 07:31:11;;;;;;;17.70;12.38;;;;;;;;;;5081607;28;20062;-64
2022/07/31 07:33:37;;;;;;;15.25;12.88;;;;;;;;;;5082459;28;20051;-64
2022/07/31 07:36:03;;;;;;;23.10;14.43;;;;;;;;;;5081104;28;20044;-65
2022/07/31 07:38:30;;;;;;;15.30;13.10;;;;;;;;;;5079480;28;20496;-69
2022/07/31 07:40:56;;;;;;;19.25;14.27;;;;;;;;;;5081801;28;20066;-75
2022/07/31 07:43:22;;;;;;;16.70;12.88;;;;;;;;;;5066400;28;20059;-65
2022/07/31 07:45:48;;;;;;;18.48;13.20;;;;;;;;;;5089621;28;20039;-64
2022/07/31 07:48:15;;;;;;;19.05;14.18;;;;;;;;;;5090842;28;20038;-64
2022/07/31 07:50:41;;;;;;;24.58;15.50;;;;;;;;;;5090412;28;20039;-65
2022/07/31 07:53:07;;;;;;;18.10;15.05;;;;;;;;;;5093527;28;20487;-65
2022/07/31 07:55:33;;;;;;;20.70;15.00;;;;;;;;;;5089576;28;20035;-64
2022/07/31 07:57:59;;;;;;;22.45;14.45;;;;;;;;;;5089530;28;20087;-64
2022/07/31 08:00:26;;;;;;;22.23;14.88;;;;;;;;;;5094165;28;20058;-64
2022/07/31 08:02:52;;;;;;;21.92;16.13;;;;;;;;;;5086930;28;20039;-66
2022/07/31 08:05:18;;;;;;;21.77;15.65;;;;;;;;;;5090057;28;20035;-65
2022/07/31 08:07:44;;;;;;;26.25;17.98;;;;;;;;;;5095656;28;20086;-65
2022/07/31 08:10:11;;;;;;;26.25;17.98;;;;;;;;;;5087667;28;20131;-65
2022/07/31 08:12:37;;;;;;;21.35;17.02;;;;;;;;;;5092470;28;20035;-66
2022/07/31 08:15:04;;;;;;;24.85;19.20;;;;;;;;;;5086730;28;20040;-65
2022/07/31 08:17:30;;;;;;;26.08;18.27;;;;;;;;;;5124672;27;20051;-65
2022/07/31 08:19:56;;;;;;;26.65;18.17;;;;;;;;;;5104661;27;20043;-65
2022/07/31 08:22:22;;;;;;;30.60;18.60;;;;;;;;;;5124482;27;20038;-65
2022/07/31 08:24:49;;;;;;;29.55;19.88;;;;;;;;;;5115721;27;20066;-65
2022/07/31 08:30:00;;;;;;;28.98;20.40;;;;;;;;;;5122943;27;20046;-65
2022/07/31 08:32:26;;;;;;;32.33;18.25;;;;;;;;;;5100503;27;20131;-65
2022/07/31 08:34:53;;;;;;;28.35;20.30;;;;;;;;;;5118480;27;20162;-65
2022/07/31 08:37:20;;;;;;;28.48;19.73;;;;;;;;;;5117164;27;20390;-65
2022/07/31 08:39:47;;;;;;;39.40;21.52;;;;;;;;;;5122332;27;20034;-65
2022/07/31 08:42:13;;;;;;;32.90;19.90;;;;;;;;;;5098732;28;20143;-65
2022/07/31 08:44:40;;;;;;;27.17;19.48;;;;;;;;;;5100517;27;20130;-66
2022/07/31 08:47:08;;;;;;;30.88;18.52;;;;;;;;;;5101095;27;20067;-65
2022/07/31 08:49:39;;;;;;;35.05;21.33;;;;;;;;;;5119466;27;20074;-66
2022/07/31 08:52:06;;;;;;;31.00;21.27;;;;;;;;;;5114556;27;20179;-66
2022/07/31 08:54:34;;;;;;;34.83;20.88;;;;;;;;;;5122594;27;20386;-66
2022/07/31 08:57:00;;;;;;;31.98;21.05;;;;;;;;;;5103258;27;20133;-66
2022/07/31 08:59:27;;;;;;;39.03;23.60;;;;;;;;;;5119545;27;20050;-65
2022/07/31 09:01:55;;;;;;;34.40;21.77;;;;;;;;;;5104484;27;20063;-66
2022/07/31 09:04:23;;;;;;;39.45;23.92;;;;;;;;;;5107071;27;20045;-65
2022/07/31 09:06:49;;;;;;;39.33;25.00;;;;;;;;;;5103512;27;20462;-65
2022/07/31 09:09:17;;;;;;;37.63;24.00;;;;;;;;;;5122929;27;20042;-66
2022/07/31 09:11:49;;;;;;;41.67;24.63;;;;;;;;;;5127215;27;20761;-65
2022/07/31 09:14:23;;;;;;;37.17;24.58;;;;;;;;;;5101414;27;20482;-65
2022/07/31 09:16:50;;;;;;;41.65;27.38;;;;;;;;;;5122177;27;20047;-66
2022/07/31 09:19:16;;;;;;;46.40;27.58;;;;;;;;;;5128358;27;20099;-65
2022/07/31 09:21:44;;;;;;;45.70;27.85;;;;;;;;;;5111727;27;21984;-66
2022/07/31 09:24:13;;;;;;;43.92;27.60;;;;;;;;;;5104774;27;20089;-65
2022/07/31 09:26:39;;;;;;;50.70;28.88;;;;;;;;;;5122057;27;20043;-75
2022/07/31 09:29:10;;;;;;;45.85;27.38;;;;;;;;;;5104133;27;20620;-65
2022/07/31 09:31:37;;;;;;;52.70;29.67;;;;;;;;;;5124327;27;20476;-66
2022/07/31 09:34:03;;;;;;;47.97;29.77;;;;;;;;;;5125160;27;20047;-65
2022/07/31 09:36:30;;;;;;;54.47;30.38;;;;;;;;;;5124235;27;20139;-65
2022/07/31 09:38:57;;;;;;;51.33;30.83;;;;;;;;;;5125232;27;20039;-65
2022/07/31 09:41:24;;;;;;;44.72;29.63;;;;;;;;;;5121301;27;20062;-64
2022/07/31 09:43:59;;;;;;;49.92;28.98;;;;;;;;;;5123433;27;20039;-64
2022/07/31 09:46:26;;;;;;;47.17;30.42;;;;;;;;;;5120841;27;20043;-65
2022/07/31 09:48:54;;;;;;;53.53;30.70;;;;;;;;;;5124430;27;20398;-64
2022/07/31 09:51:21;;;;;;;41.60;27.15;;;;;;;;;;5128376;27;20112;-64
2022/07/31 09:53:52;;;;;;;46.40;28.20;;;;;;;;;;5107345;27;20055;-64
2022/07/31 09:56:30;;;;;;;49.50;28.95;;;;;;;;;;5121429;27;20035;-64
2022/07/31 09:58:56;;;;;;;37.55;25.92;;;;;;;;;;5122069;27;22046;-64
2022/07/31 10:01:23;;;;;;;43.25;26.48;;;;;;;;;;5123318;27;20110;-64
2022/07/31 10:03:50;;;;;;;43.83;25.10;;;;;;;;;;5124290;27;20043;-63
2022/07/31 10:06:16;;;;;;;44.10;27.63;;;;;;;;;;5124711;27;21304;-63
2022/07/31 10:08:45;;;;;;;40.58;26.90;;;;;;;;;;5125818;27;20042;-63
2022/07/31 10:11:11;;;;;;;43.45;26.13;;;;;;;;;;5126444;27;20043;-63
2022/07/31 10:13:39;;;;;;;33.80;21.52;;;;;;;;;;5113532;27;20550;-63
2022/07/31 10:16:06;;;;;;;31.00;20.30;;;;;;;;;;5096455;27;20537;-63
2022/07/31 10:18:37;;;;;;;27.33;19.17;;;;;;;;;;5076242;28;20048;-62
2022/07/31 10:21:04;;;;;;;31.50;22.38;;;;;;;;;;5079191;28;20040;-63
2022/07/31 10:23:32;;;;;;;26.17;16.77;;;;;;;;;;5091279;28;20071;-63
2022/07/31 10:25:59;;;;;;;26.20;17.50;;;;;;;;;;5088309;28;20055;-63
2022/07/31 10:28:28;;;;;;;29.05;18.25;;;;;;;;;;5092315;28;20032;-63
2022/07/31 10:30:55;;;;;;;21.95;15.68;;;;;;;;;;5083800;28;20128;-63
2022/07/31 10:33:21;;;;;;;22.77;15.52;;;;;;;;;;5095092;28;20035;-63
2022/07/31 10:35:54;;;;;;;23.98;16.08;;;;;;;;;;5090377;28;20389;-62
2022/07/31 10:38:26;;;;;;;23.23;16.90;;;;;;;;;;5093942;28;20120;-63
2022/07/31 10:41:02;;;;;;;23.67;16.73;;;;;;;;;;5096052;28;20044;-63
2022/07/31 10:43:35;;;;;;;36.88;18.73;;;;;;;;;;5098870;28;20297;-62
2022/07/31 10:46:01;;;;;;;26.60;19.10;;;;;;;;;;5098154;28;20082;-62
2022/07/31 10:48:28;;;;;;;29.65;20.40;;;;;;;;;;5094722;28;20064;-62
2022/07/31 10:51:01;;;;;;;31.48;20.42;;;;;;;;;;5099401;28;20138;-62
2022/07/31 10:53:28;;;;;;;31.00;22.42;;;;;;;;;;5101345;28;20047;-62
2022/07/31 10:56:02;;;;;;;37.08;24.45;;;;;;;;;;5091312;28;20123;-62
2022/07/31 10:58:29;;;;;;;41.53;26.85;;;;;;;;;;5092130;28;20046;-62
2022/07/31 11:01:07;;;;;;;50.20;30.10;;;;;;;;;;5099105;28;20040;-63
2022/07/31 11:03:40;;;;;;;49.00;30.88;;;;;;;;;;5085260;28;20051;-62
2022/07/31 11:06:06;;;;;;;52.75;30.00;;;;;;;;;;5090330;28;20376;-61
2022/07/31 11:08:42;;;;;;;54.50;31.75;;;;;;;;;;5080844;28;20586;-61
2022/07/31 11:11:09;;;;;;;48.17;31.38;;;;;;;;;;5094747;28;20064;-61
2022/07/31 11:13:49;;;;;;;82.32;36.28;;;;;;;;;;5084104;28;20050;-61
2022/07/31 11:16:16;;;;;;;63.47;35.92;;;;;;;;;;5105575;27;20054;-61
2022/07/31 11:18:44;;;;;;;79.65;39.75;;;;;;;;;;5137890;27;20160;-61
2022/07/31 11:21:11;;;;;;;60.67;34.58;;;;;;;;;;5129658;27;20070;-60
2022/07/31 11:23:37;;;;;;;67.35;38.60;;;;;;;;;;5126805;27;20125;-61
2022/07/31 11:26:05;;;;;;;82.57;41.20;;;;;;;;;;5107636;27;20363;-61
2022/07/31 11:28:31;;;;;;;70.85;39.28;;;;;;;;;;5124101;27;20043;-60
2022/07/31 11:31:02;;;;;;;77.35;42.00;;;;;;;;;;5131424;27;20099;-61
2022/07/31 11:33:29;;;;;;;82.68;42.13;;;;;;;;;;5126817;27;20074;-60
2022/07/31 11:35:56;;;;;;;95.57;44.83;;;;;;;;;;5123765;27;20106;-60
2022/07/31 11:38:29;;;;;;;88.07;42.00;;;;;;;;;;5103214;27;20058;-60
2022/07/31 11:40:55;;;;;;;77.10;37.42;;;;;;;;;;5124648;27;20047;-60
2022/07/31 11:43:21;;;;;;;58.88;27.20;;;;;;;;;;5127506;27;20073;-60
2022/07/31 11:45:48;;;;;;;47.60;25.52;;;;;;;;;;5127077;27;20069;-60
2022/07/31 11:48:15;;;;;;;76.07;31.08;;;;;;;;;;5123395;27;20447;-60
2022/07/31 11:50:42;;;;;;;77.47;32.35;;;;;;;;;;5131840;27;20110;-61
2022/07/31 11:53:08;;;;;;;102.60;37.67;;;;;;;;;;5128344;27;20130;-61
2022/07/31 11:55:45;;;;;;;95.47;35.85;;;;;;;;;;5110569;27;20050;-66
2022/07/31 11:58:12;;;;;;;79.57;29.02;;;;;;;;;;5128801;27;20071;-62
2022/07/31 12:00:38;;;;;;;74.65;26.92;;;;;;;;;;5128520;27;20080;-61
2022/07/31 12:03:05;;;;;;;53.00;22.55;;;;;;;;;;5128152;27;20072;-60
2022/07/31 12:05:31;;;;;;;66.78;22.52;;;;;;;;;;5113615;27;20406;-60
2022/07/31 12:07:58;;;;;;;36.83;17.42;;;;;;;;;;5122749;27;20576;-60
2022/07/31 12:10:24;;;;;;;52.35;18.98;;;;;;;;;;5107166;27;20038;-60
2022/07/31 12:12:50;;;;;;;46.00;14.57;;;;;;;;;;5127648;27;20121;-60
2022/07/31 12:15:18;;;;;;;18.80;9.85;;;;;;;;;;5106565;27;20172;-59
2022/07/31 12:17:45;;;;;;;16.90;9.50;;;;;;;;;;5128336;27;20043;-59
2022/07/31 12:20:11;;;;;;;15.88;8.82;;;;;;;;;;5105399;27;20039;-58
2022/07/31 12:22:38;;;;;;;26.98;11.60;;;;;;;;;;5110691;27;20051;-59
2022/07/31 12:25:08;;;;;;;36.35;14.63;;;;;;;;;;5120809;27;20046;-58
2022/07/31 12:27:35;;;;;;;27.38;12.68;;;;;;;;;;5137036;27;20179;-59
2022/07/31 12:30:16;;;;;;;17.98;11.25;;;;;;;;;;5132372;27;20394;-60
2022/07/31 12:32:43;;;;;;;18.63;10.45;;;;;;;;;;5130863;27;20048;-59
2022/07/31 12:35:09;;;;;;;16.05;9.27;;;;;;;;;;5109466;27;20047;-58
2022/07/31 12:37:43;;;;;;;10.32;7.10;;;;;;;;;;5122724;27;20043;-58
2022/07/31 12:40:09;;;;;;;10.20;6.03;;;;;;;;;;5125420;27;20071;-58
2022/07/31 12:42:38;;;;;;;13.60;7.32;;;;;;;;;;5105154;27;20070;-59
2022/07/31 12:45:05;;;;;;;16.00;8.45;;;;;;;;;;5125434;27;20054;-58
2022/07/31 12:47:32;;;;;;;12.43;7.63;;;;;;;;;;5107366;27;20054;-59
2022/07/31 12:49:59;;;;;;;16.33;8.40;;;;;;;;;;5122650;27;20043;-58
2022/07/31 12:52:27;;;;;;;21.92;9.85;;;;;;;;;;5124936;27;20039;-59
2022/07/31 12:54:53;;;;;;;16.95;9.15;;;;;;;;;;5123387;27;20047;-59
2022/07/31 12:57:19;;;;;;;17.27;10.05;;;;;;;;;;5121462;27;20099;-58
2022/07/31 12:59:46;;;;;;;18.65;10.80;;;;;;;;;;5128503;27;20099;-59
2022/07/31 13:02:12;;;;;;;18.13;9.60;;;;;;;;;;5128481;27;20051;-59
2022/07/31 13:04:38;;;;;;;15.15;9.85;;;;;;;;;;5128686;27;20126;-59
2022/07/31 13:07:04;;;;;;;21.10;11.98;;;;;;;;;;5131948;27;20047;-59
2022/07/31 13:09:30;;;;;;;12.80;9.13;;;;;;;;;;5132028;27;20515;-59
2022/07/31 13:11:57;;;;;;;17.45;9.18;;;;;;;;;;5129888;27;20710;-66
2022/07/31 13:14:23;;;;;;;10.60;8.10;;;;;;;;;;5115517;27;20125;-59
2022/07/31 13:16:50;;;;;;;14.20;8.65;;;;;;;;;;5127332;27;21605;-58
2022/07/31 13:19:16;;;;;;;15.15;8.93;;;;;;;;;;5127913;27;20151;-59
2022/07/31 13:21:43;;;;;;;13.43;8.73;;;;;;;;;;5107790;27;20046;-58
2022/07/31 13:24:10;;;;;;;16.33;10.10;;;;;;;;;;5129922;27;20499;-58
2022/07/31 13:26:37;;;;;;;18.05;10.65;;;;;;;;;;5115175;27;20113;-59
2022/07/31 13:29:03;;;;;;;18.02;10.50;;;;;;;;;;5139406;27;20042;-58
2022/07/31 13:31:30;;;;;;;19.75;10.95;;;;;;;;;;5133873;27;20127;-69
2022/07/31 13:33:56;;;;;;;16.45;10.20;;;;;;;;;;5118327;27;20042;-59
2022/07/31 13:36:23;;;;;;;14.93;9.43;;;;;;;;;;5131295;27;20457;-58
2022/07/31 13:38:49;;;;;;;21.35;10.00;;;;;;;;;;5136560;27;20133;-58
2022/07/31 13:41:19;;;;;;;21.45;10.50;;;;;;;;;;5139153;27;20051;-59
2022/07/31 13:43:47;;;;;;;15.98;10.63;;;;;;;;;;5133879;27;20383;-59
2022/07/31 13:46:13;;;;;;;17.88;10.13;;;;;;;;;;5137781;27;20050;-58
2022/07/31 13:48:39;;;;;;;20.05;11.07;;;;;;;;;;5127100;27;20039;-59
2022/07/31 13:51:06;;;;;;;21.33;12.70;;;;;;;;;;5129851;27;20047;-59
2022/07/31 13:53:32;;;;;;;23.58;13.70;;;;;;;;;;5126991;27;20406;-58
2022/07/31 13:55:58;;;;;;;22.25;13.18;;;;;;;;;;5127518;27;20034;-59
2022/07/31 13:58:26;;;;;;;21.70;13.77;;;;;;;;;;5129254;27;20047;-61
2022/07/31 14:00:52;;;;;;;19.80;11.57;;;;;;;;;;5134987;27;20131;-68
2022/07/31 14:03:19;;;;;;;20.42;11.98;;;;;;;;;;5099915;27;20042;-59
2022/07/31 14:05:45;;;;;;;22.50;12.40;;;;;;;;;;5138491;27;20047;-58
2022/07/31 14:08:11;;;;;;;18.08;11.85;;;;;;;;;;5120458;27;20055;-58
2022/07/31 14:10:38;;;;;;;22.02;12.07;;;;;;;;;;5124161;27;20060;-58
2022/07/31 14:13:05;;;;;;;20.83;11.77;;;;;;;;;;5131331;27;20419;-59
2022/07/31 14:15:31;;;;;;;20.83;12.73;;;;;;;;;;5128643;27;20062;-58
2022/07/31 14:17:58;;;;;;;17.35;10.77;;;;;;;;;;5127916;27;20084;-58
2022/07/31 14:20:25;;;;;;;17.92;9.73;;;;;;;;;;5142480;27;20055;-58
2022/07/31 14:22:52;;;;;;;16.67;9.25;;;;;;;;;;5141257;27;20083;-59
2022/07/31 14:25:18;;;;;;;21.88;10.00;;;;;;;;;;5133462;27;20129;-59
2022/07/31 14:27:44;;;;;;;14.73;7.45;;;;;;;;;;5121795;27;20046;-59
2022/07/31 14:30:11;;;;;;;11.02;6.78;;;;;;;;;;5134376;27;20122;-59